createdAt,value
2023-03-30T00:01:10.804Z,0.08
2023-03-30T00:03:40.357Z,0.13
2023-03-30T00:06:12.489Z,0.17
2023-03-30T00:08:40.858Z,0.15
2023-03-30T00:11:12.016Z,0.16
2023-03-30T00:13:41.717Z,0.19
2023-03-30T00:16:12.340Z,0.16
2023-03-30T00:18:41.572Z,0.18
2023-03-30T00:21:11.406Z,0.19
2023-03-30T00:23:40.644Z,0.14
2023-03-30T00:26:10.252Z,0.12
2023-03-30T00:28:38.623Z,0.17
2023-03-30T00:31:07.442Z,0.13
2023-03-30T00:33:45.631Z,0.13
2023-03-30T00:36:17.249Z,0.19
2023-03-30T00:38:48.560Z,0.17
2023-03-30T00:41:17.823Z,0.15
2023-03-30T00:44:00.893Z,0.18
2023-03-30T00:46:31.113Z,0.19
2023-03-30T00:49:04.159Z,0.16
2023-03-30T00:51:36.045Z,0.18
2023-03-30T00:54:19.358Z,0.20
2023-03-30T00:56:48.436Z,0.16
2023-03-30T00:59:16.982Z,0.22
2023-03-30T01:01:50.507Z,0.17
2023-03-30T01:04:19.041Z,0.14
2023-03-30T01:06:52.220Z,0.09
2023-03-30T01:09:20.981Z,0.10
2023-03-30T01:11:49.419Z,0.02
2023-03-30T01:14:19.133Z,0.04
2023-03-30T01:16:57.673Z,0.04
2023-03-30T01:19:50.927Z,0.08
2023-03-30T01:22:40.708Z,0.06
2023-03-30T01:25:50.440Z,0.01
2023-03-30T01:28:31.675Z,0.00
2023-03-30T01:31:18.190Z,0.00
2023-03-30T01:34:09.113Z,-0.03
2023-03-30T01:37:00.112Z,-0.02
2023-03-30T01:39:41.761Z,-0.05
2023-03-30T01:42:20.413Z,-0.04
2023-03-30T01:44:59.062Z,-0.04
2023-03-30T01:47:38.084Z,-0.03
2023-03-30T01:50:13.279Z,0.03
2023-03-30T01:52:50.411Z,0.01
2023-03-30T01:55:22.841Z,0.05
2023-03-30T01:57:56.881Z,0.01
2023-03-30T02:00:27.899Z,0.05
2023-03-30T02:03:03.852Z,0.04
2023-03-30T02:05:34.241Z,-0.03
2023-03-30T02:08:06.527Z,-0.01
2023-03-30T02:10:37.503Z,0.13
2023-03-30T02:13:08.382Z,0.10
2023-03-30T02:15:40.244Z,0.08
2023-03-30T02:18:08.731Z,0.07
2023-03-30T02:20:38.459Z,0.14
2023-03-30T02:23:08.184Z,0.13
2023-03-30T02:25:39.706Z,0.22
2023-03-30T02:28:08.974Z,0.16
2023-03-30T02:30:41.212Z,0.12
2023-03-30T02:33:15.873Z,0.14
2023-03-30T02:35:59.414Z,0.11
2023-03-30T02:38:57.678Z,0.15
2023-03-30T02:41:47.233Z,0.09
2023-03-30T02:44:27.873Z,0.05
2023-03-30T02:47:06.177Z,-0.02
2023-03-30T02:49:48.150Z,-0.13
2023-03-30T02:52:34.142Z,-0.12
2023-03-30T02:55:11.766Z,-0.17
2023-03-30T02:57:52.730Z,-0.17
2023-03-30T03:00:27.659Z,-0.21
2023-03-30T03:02:59.126Z,-0.25
2023-03-30T03:05:32.602Z,-0.22
2023-03-30T03:08:01.009Z,-0.15
2023-03-30T03:10:30.001Z,-0.10
2023-03-30T03:12:59.802Z,-0.11
2023-03-30T03:15:29.052Z,-0.01
2023-03-30T03:17:58.674Z,0.01
2023-03-30T03:20:30.695Z,0.01
2023-03-30T03:22:59.144Z,-0.01
2023-03-30T03:25:27.562Z,0.03
2023-03-30T03:27:56.067Z,0.03
2023-03-30T03:30:26.075Z,0.01
2023-03-30T03:32:54.664Z,-0.18
2023-03-30T03:35:23.151Z,-0.24
2023-03-30T03:37:51.424Z,-0.28
2023-03-30T03:40:20.278Z,-0.26
2023-03-30T03:42:48.639Z,-0.29
2023-03-30T03:45:17.339Z,-0.30
2023-03-30T03:47:47.085Z,-0.25
2023-03-30T03:50:15.635Z,-0.27
2023-03-30T03:52:43.990Z,-0.24
2023-03-30T03:55:13.050Z,-0.25
2023-03-30T03:57:41.733Z,-0.32
2023-03-30T04:00:15.856Z,-0.41
2023-03-30T04:02:44.666Z,-0.38
2023-03-30T04:05:15.033Z,-0.41
2023-03-30T04:07:46.569Z,-0.35
2023-03-30T04:10:15.762Z,-0.26
2023-03-30T04:12:44.257Z,-0.10
2023-03-30T04:15:12.936Z,0.19
2023-03-30T04:17:41.353Z,0.76
2023-03-30T04:20:12.431Z,1.14
2023-03-30T04:22:43.032Z,1.02
2023-03-30T04:25:15.111Z,1.06
2023-03-30T04:27:44.062Z,1.02
2023-03-30T04:30:14.146Z,0.79
2023-03-30T04:32:42.751Z,0.68
2023-03-30T04:35:11.234Z,0.54
2023-03-30T04:37:42.304Z,0.69
2023-03-30T04:40:13.807Z,0.66
2023-03-30T04:42:43.211Z,0.52
2023-03-30T04:45:12.144Z,0.52
2023-03-30T04:47:40.532Z,0.80
2023-03-30T04:50:09.461Z,1.04
2023-03-30T04:52:38.306Z,1.28
2023-03-30T04:55:08.785Z,1.38
2023-03-30T04:57:38.626Z,1.63
2023-03-30T05:00:09.476Z,1.80
2023-03-30T05:02:38.121Z,1.93
2023-03-30T05:05:07.487Z,2.09
2023-03-30T05:07:36.126Z,2.08
2023-03-30T05:10:04.592Z,2.18
2023-03-30T05:12:33.475Z,2.38
2023-03-30T05:15:03.309Z,2.69
2023-03-30T05:17:34.780Z,2.84
2023-03-30T05:20:08.543Z,2.85
2023-03-30T05:22:36.939Z,2.56
2023-03-30T05:25:05.785Z,2.14
2023-03-30T05:27:34.455Z,1.85
2023-03-30T05:30:05.075Z,2.09
2023-03-30T05:32:33.488Z,2.24
2023-03-30T05:35:02.076Z,2.36
2023-03-30T05:37:30.429Z,2.05
2023-03-30T05:39:58.973Z,2.35
2023-03-30T05:42:27.359Z,2.48
2023-03-30T05:44:56.529Z,2.43
2023-03-30T05:47:26.473Z,2.42
2023-03-30T05:49:54.815Z,2.43
2023-03-30T05:52:23.994Z,2.76
2023-03-30T05:54:54.489Z,2.70
2023-03-30T05:57:23.338Z,2.79
2023-03-30T05:59:51.764Z,3.13
2023-03-30T06:02:20.397Z,3.28
2023-03-30T06:04:50.316Z,3.46
2023-03-30T06:07:18.903Z,3.33
2023-03-30T06:09:47.562Z,3.48
2023-03-30T06:12:15.947Z,3.84
2023-03-30T06:14:44.291Z,4.13
2023-03-30T06:17:16.053Z,4.40
2023-03-30T06:19:44.468Z,4.76
2023-03-30T06:22:14.489Z,4.95
2023-03-30T06:24:43.068Z,5.37
2023-03-30T06:27:11.676Z,5.66
2023-03-30T06:29:40.165Z,6.00
2023-03-30T06:32:09.168Z,6.23
2023-03-30T06:34:37.603Z,6.15
2023-03-30T06:37:08.902Z,6.44
2023-03-30T06:39:38.778Z,6.39
2023-03-30T06:42:07.374Z,6.33
2023-03-30T06:44:35.738Z,6.47
2023-03-30T06:47:05.518Z,7.02
2023-03-30T06:49:34.208Z,7.66
2023-03-30T06:52:05.575Z,8.09
2023-03-30T06:54:35.188Z,7.96
2023-03-30T06:57:05.183Z,8.62
2023-03-30T06:59:35.133Z,9.54
2023-03-30T07:02:03.830Z,9.47
2023-03-30T07:04:32.163Z,8.93
2023-03-30T07:07:00.604Z,9.54
2023-03-30T07:09:29.188Z,8.91
2023-03-30T07:11:57.622Z,8.65
2023-03-30T07:14:27.530Z,8.29
2023-03-30T07:16:57.066Z,7.82
2023-03-30T07:19:25.684Z,7.20
2023-03-30T07:21:54.085Z,7.14
2023-03-30T07:24:22.642Z,6.52
2023-03-30T07:26:51.220Z,6.54
2023-03-30T07:29:19.570Z,6.53
2023-03-30T07:31:49.463Z,6.42
2023-03-30T07:34:18.294Z,6.34
2023-03-30T07:36:47.726Z,6.11
2023-03-30T07:39:17.047Z,6.02
2023-03-30T07:41:46.740Z,5.89
2023-03-30T07:44:15.032Z,5.75
2023-03-30T07:46:43.713Z,6.01
2023-03-30T07:49:15.394Z,6.16
2023-03-30T07:51:43.761Z,6.26
2023-03-30T07:54:12.144Z,6.47
2023-03-30T07:56:43.010Z,6.28
2023-03-30T07:59:12.777Z,6.14
2023-03-30T08:01:41.063Z,6.28
2023-03-30T08:04:09.506Z,6.33
2023-03-30T08:06:39.819Z,6.41
2023-03-30T08:09:08.680Z,6.53
2023-03-30T08:11:37.057Z,6.62
2023-03-30T08:14:06.528Z,6.77
2023-03-30T08:16:35.481Z,6.50
2023-03-30T08:19:04.031Z,6.77
2023-03-30T08:21:32.389Z,6.80
2023-03-30T08:24:02.258Z,6.57
2023-03-30T08:26:31.068Z,6.56
2023-03-30T08:28:59.455Z,6.50
2023-03-30T08:31:27.972Z,6.42
2023-03-30T08:33:56.662Z,6.47
2023-03-30T08:36:25.035Z,6.65
2023-03-30T08:38:55.588Z,6.89
2023-03-30T08:42:01.402Z,6.69
2023-03-30T08:44:37.987Z,6.56
2023-03-30T08:47:11.122Z,6.70
2023-03-30T08:49:44.129Z,6.83
2023-03-30T08:52:20.297Z,6.74
2023-03-30T08:54:49.170Z,6.53
2023-03-30T08:57:31.646Z,6.59
2023-03-30T09:00:16.072Z,6.69
2023-03-30T09:02:48.330Z,6.84
2023-03-30T09:05:22.851Z,7.05
2023-03-30T09:08:00.617Z,7.14
2023-03-30T09:10:33.087Z,7.13
2023-03-30T09:13:05.732Z,7.16
2023-03-30T09:15:37.409Z,7.08
2023-03-30T09:18:13.418Z,7.14
2023-03-30T09:20:45.885Z,6.94
2023-03-30T09:23:16.515Z,7.07
2023-03-30T09:25:51.292Z,7.34
2023-03-30T09:28:25.483Z,7.27
2023-03-30T09:30:58.545Z,7.23
2023-03-30T09:33:33.973Z,7.36
2023-03-30T09:36:11.755Z,7.19
2023-03-30T09:38:42.131Z,7.04
2023-03-30T09:41:30.439Z,7.20
2023-03-30T09:44:01.416Z,7.58
2023-03-30T09:46:30.242Z,7.55
2023-03-30T09:49:15.446Z,7.24
2023-03-30T09:52:03.931Z,7.58
2023-03-30T09:54:39.842Z,7.68
2023-03-30T09:57:24.922Z,7.71
2023-03-30T09:59:56.121Z,7.52
2023-03-30T10:02:25.647Z,7.73
2023-03-30T10:05:02.692Z,7.80
2023-03-30T10:07:34.671Z,7.58
2023-03-30T10:10:14.378Z,7.82
2023-03-30T10:12:43.051Z,7.36
2023-03-30T10:15:21.546Z,7.50
2023-03-30T10:17:51.553Z,7.61
2023-03-30T10:20:28.101Z,7.73
2023-03-30T10:22:58.182Z,8.02
2023-03-30T10:25:31.681Z,7.84
2023-03-30T10:28:04.726Z,8.07
2023-03-30T10:30:35.219Z,7.87
2023-03-30T10:33:04.463Z,8.09
2023-03-30T10:35:37.517Z,8.10
2023-03-30T10:38:09.046Z,7.95
2023-03-30T10:40:40.957Z,8.02
2023-03-30T10:43:16.065Z,8.14
2023-03-30T10:45:50.071Z,7.99
2023-03-30T10:48:36.165Z,8.00
2023-03-30T10:51:12.777Z,7.74
2023-03-30T10:53:48.828Z,7.74
2023-03-30T10:56:28.000Z,7.84
2023-03-30T10:59:27.012Z,7.89
2023-03-30T11:02:17.277Z,8.20
2023-03-30T11:04:48.215Z,8.40
2023-03-30T11:07:26.145Z,8.16
2023-03-30T11:09:56.571Z,8.34
2023-03-30T11:12:30.613Z,8.45
2023-03-30T11:15:04.130Z,8.33
2023-03-30T11:17:36.918Z,8.18
2023-03-30T11:20:20.915Z,8.12
2023-03-30T11:22:56.962Z,8.25
2023-03-30T11:25:28.546Z,8.31
2023-03-30T11:28:02.853Z,8.16
2023-03-30T11:30:34.801Z,8.33
2023-03-30T11:33:14.361Z,8.31
2023-03-30T11:35:47.890Z,8.46
2023-03-30T11:38:21.519Z,8.39
2023-03-30T11:40:53.976Z,8.46
2023-03-30T11:43:24.312Z,8.31
2023-03-30T11:46:04.211Z,8.50
2023-03-30T11:48:54.340Z,8.51
2023-03-30T11:51:35.703Z,8.62
2023-03-30T11:54:24.367Z,8.74
2023-03-30T11:56:57.917Z,8.60
2023-03-30T11:59:35.794Z,8.57
2023-03-30T12:02:14.024Z,8.59
2023-03-30T12:04:49.615Z,8.49
2023-03-30T12:07:31.914Z,8.62
2023-03-30T12:10:06.749Z,8.46
2023-03-30T12:12:39.304Z,8.25
2023-03-30T12:15:34.426Z,8.61
2023-03-30T12:18:14.475Z,8.68
2023-03-30T12:20:52.118Z,8.60
2023-03-30T12:23:40.237Z,8.76
2023-03-30T12:26:17.892Z,8.87
2023-03-30T12:29:20.845Z,9.08
2023-03-30T12:32:08.131Z,9.04
2023-03-30T12:34:38.231Z,9.04
2023-03-30T12:37:13.421Z,8.99
2023-03-30T12:39:49.550Z,8.86
2023-03-30T12:42:27.628Z,8.95
2023-03-30T12:45:33.119Z,9.00
2023-03-30T12:48:40.706Z,8.97
2023-03-30T12:51:22.722Z,8.84
2023-03-30T12:54:16.033Z,8.89
2023-03-30T12:56:55.835Z,8.95
2023-03-30T12:59:58.865Z,9.10
2023-03-30T13:02:55.183Z,9.32
2023-03-30T13:05:27.954Z,9.29
2023-03-30T13:07:57.767Z,9.12
2023-03-30T13:10:42.019Z,9.20
2023-03-30T13:13:23.060Z,9.18
2023-03-30T13:15:54.561Z,9.18
2023-03-30T13:18:35.932Z,9.14
2023-03-30T13:21:19.204Z,9.13
2023-03-30T13:24:01.943Z,9.01
2023-03-30T13:26:42.098Z,9.04
2023-03-30T13:29:14.411Z,9.01
2023-03-30T13:31:55.289Z,9.22
2023-03-30T13:34:36.282Z,9.12
2023-03-30T13:37:16.498Z,9.14
2023-03-30T13:39:53.990Z,8.95
2023-03-30T13:42:40.360Z,8.85
2023-03-30T13:45:22.603Z,8.93
2023-03-30T13:48:01.673Z,8.98
2023-03-30T13:50:34.398Z,9.11
2023-03-30T13:53:05.512Z,9.22
2023-03-30T13:55:37.178Z,9.33
2023-03-30T13:58:11.709Z,9.16
2023-03-30T14:00:48.979Z,9.22
2023-03-30T14:03:35.146Z,9.12
2023-03-30T14:06:07.780Z,9.27
2023-03-30T14:08:39.087Z,9.19
2023-03-30T14:11:15.911Z,9.15
2023-03-30T14:13:48.686Z,9.00
2023-03-30T14:16:21.630Z,9.00
2023-03-30T14:18:51.054Z,9.04
2023-03-30T14:21:23.384Z,9.05
2023-03-30T14:23:53.993Z,8.86
2023-03-30T14:26:26.544Z,8.79
2023-03-30T14:29:03.115Z,8.60
2023-03-30T14:31:40.331Z,8.41
2023-03-30T14:34:26.851Z,8.29
2023-03-30T14:36:55.933Z,8.23
2023-03-30T14:39:25.526Z,7.98
2023-03-30T14:41:56.474Z,7.87
2023-03-30T14:44:26.798Z,7.72
2023-03-30T14:46:57.411Z,7.77
2023-03-30T14:49:29.249Z,7.77
2023-03-30T14:52:04.489Z,7.41
2023-03-30T14:54:33.223Z,7.22
2023-03-30T14:57:04.148Z,7.23
2023-03-30T14:59:38.514Z,7.06
2023-03-30T15:02:19.448Z,7.08
2023-03-30T15:04:48.587Z,7.17
2023-03-30T15:07:18.090Z,7.18
2023-03-30T15:09:47.992Z,7.11
2023-03-30T15:12:25.081Z,7.08
2023-03-30T15:14:58.143Z,7.02
2023-03-30T15:17:28.625Z,6.94
2023-03-30T15:20:00.858Z,6.81
2023-03-30T15:22:34.637Z,6.72
2023-03-30T15:25:07.386Z,6.62
2023-03-30T15:27:38.605Z,6.57
2023-03-30T15:30:16.562Z,6.46
2023-03-30T15:32:45.290Z,6.35
2023-03-30T15:35:23.373Z,6.32
2023-03-30T15:37:58.028Z,6.26
2023-03-30T15:40:36.150Z,6.20
2023-03-30T15:43:15.668Z,6.11
2023-03-30T15:45:52.527Z,6.13
2023-03-30T15:48:24.552Z,5.99
2023-03-30T15:51:33.537Z,5.93
2023-03-30T15:54:05.030Z,5.89
2023-03-30T15:56:38.147Z,5.75
2023-03-30T15:59:07.314Z,5.76
2023-03-30T16:01:45.974Z,5.72
2023-03-30T16:04:16.969Z,5.66
2023-03-30T16:06:47.444Z,5.60
2023-03-30T16:09:16.536Z,5.58
2023-03-30T16:11:46.813Z,5.53
2023-03-30T16:14:20.430Z,5.50
2023-03-30T16:16:51.026Z,5.45
2023-03-30T16:19:20.980Z,5.39
2023-03-30T16:21:49.818Z,5.25
2023-03-30T16:24:18.363Z,5.27
2023-03-30T16:26:47.106Z,5.23
2023-03-30T16:29:23.151Z,5.21
2023-03-30T16:31:53.523Z,5.16
2023-03-30T16:34:23.228Z,5.11
2023-03-30T16:36:52.430Z,5.12
2023-03-30T16:39:23.664Z,5.08
2023-03-30T16:41:53.053Z,4.96
2023-03-30T16:44:22.573Z,4.92
2023-03-30T16:46:53.210Z,4.88
2023-03-30T16:49:23.501Z,4.84
2023-03-30T16:51:54.480Z,4.90
2023-03-30T16:54:31.900Z,4.84
2023-03-30T16:57:02.210Z,4.87
2023-03-30T16:59:32.846Z,4.77
2023-03-30T17:02:03.602Z,4.89
2023-03-30T17:04:31.980Z,4.84
2023-03-30T17:07:00.978Z,4.78
2023-03-30T17:09:30.015Z,4.76
2023-03-30T17:11:58.363Z,4.69
2023-03-30T17:14:27.844Z,4.64
2023-03-30T17:16:56.311Z,4.71
2023-03-30T17:19:28.005Z,4.57
2023-03-30T17:21:56.832Z,4.52
2023-03-30T17:24:25.392Z,4.52
2023-03-30T17:26:53.823Z,4.43
2023-03-30T17:29:22.239Z,4.38
2023-03-30T17:31:51.990Z,4.35
2023-03-30T17:34:20.560Z,4.42
2023-03-30T17:36:50.505Z,4.39
2023-03-30T17:39:18.930Z,4.44
2023-03-30T17:41:47.322Z,4.35
2023-03-30T17:44:15.930Z,4.43
2023-03-30T17:46:44.362Z,4.29
2023-03-30T17:49:17.495Z,4.26
2023-03-30T17:51:46.044Z,4.19
2023-03-30T17:54:16.488Z,4.23
2023-03-30T17:56:45.578Z,4.29
2023-03-30T17:59:14.230Z,4.33
2023-03-30T18:01:43.374Z,4.21
2023-03-30T18:04:11.740Z,4.16
2023-03-30T18:06:41.357Z,4.05
2023-03-30T18:09:16.424Z,3.88
2023-03-30T18:11:44.849Z,3.83
2023-03-30T18:14:13.308Z,3.75
2023-03-30T18:16:44.027Z,3.84
2023-03-30T18:19:12.976Z,3.83
2023-03-30T18:21:41.652Z,3.79
2023-03-30T18:24:10.975Z,3.82
2023-03-30T18:26:43.130Z,3.95
2023-03-30T18:29:20.389Z,3.86
2023-03-30T18:31:49.376Z,3.72
2023-03-30T18:34:19.659Z,3.68
2023-03-30T18:36:48.109Z,3.58
2023-03-30T18:39:20.174Z,3.51
2023-03-30T18:41:50.246Z,3.44
2023-03-30T18:44:18.590Z,3.36
2023-03-30T18:46:51.074Z,3.39
2023-03-30T18:49:23.503Z,3.37
2023-03-30T18:51:52.302Z,3.31
2023-03-30T18:54:20.966Z,3.35
2023-03-30T18:56:51.504Z,3.37
2023-03-30T18:59:23.077Z,3.28
2023-03-30T19:01:51.640Z,3.12
2023-03-30T19:04:21.500Z,2.99
2023-03-30T19:06:50.383Z,2.94
2023-03-30T19:09:21.614Z,2.70
2023-03-30T19:11:57.652Z,2.62
2023-03-30T19:14:26.121Z,2.56
2023-03-30T19:16:54.448Z,2.74
2023-03-30T19:19:22.884Z,2.72
2023-03-30T19:21:55.254Z,2.74
2023-03-30T19:24:23.708Z,2.76
2023-03-30T19:26:52.098Z,2.66
2023-03-30T19:29:21.871Z,2.57
2023-03-30T19:31:50.308Z,2.64
2023-03-30T19:34:18.826Z,2.54
2023-03-30T19:36:47.209Z,2.43
2023-03-30T19:39:15.598Z,2.38
2023-03-30T19:41:44.005Z,2.34
2023-03-30T19:44:13.717Z,2.30
2023-03-30T19:46:43.627Z,2.32
2023-03-30T19:49:12.112Z,2.27
2023-03-30T19:51:40.449Z,2.27
2023-03-30T19:54:08.930Z,2.26
2023-03-30T19:56:37.487Z,2.33
2023-03-30T19:59:05.846Z,2.25
2023-03-30T20:01:34.346Z,2.25
2023-03-30T20:04:04.359Z,2.33
2023-03-30T20:06:33.509Z,2.25
2023-03-30T20:09:02.017Z,2.15
2023-03-30T20:11:30.786Z,2.35
2023-03-30T20:13:59.411Z,2.29
2023-03-30T20:16:36.099Z,2.34
2023-03-30T20:19:15.938Z,2.42
2023-03-30T20:21:51.975Z,2.70
2023-03-30T20:24:20.534Z,2.88
2023-03-30T20:26:48.843Z,2.94
2023-03-30T20:29:17.233Z,2.89
2023-03-30T20:31:46.348Z,2.89
2023-03-30T20:34:16.554Z,2.87
2023-03-30T20:36:47.416Z,2.84
2023-03-30T20:39:15.811Z,2.94
2023-03-30T20:41:44.245Z,2.83
2023-03-30T20:44:12.878Z,2.65
2023-03-30T20:46:43.509Z,2.59
2023-03-30T20:49:14.114Z,2.60
2023-03-30T20:51:45.215Z,2.58
2023-03-30T20:54:13.539Z,2.45
2023-03-30T20:56:42.285Z,2.35
2023-03-30T20:59:10.762Z,2.42
2023-03-30T21:01:41.119Z,2.59
2023-03-30T21:04:09.595Z,2.70
2023-03-30T21:06:38.038Z,2.82
2023-03-30T21:09:08.601Z,2.92
2023-03-30T21:11:39.992Z,2.83
2023-03-30T21:14:09.640Z,2.68
2023-03-30T21:16:38.254Z,2.41
2023-03-30T21:19:07.241Z,2.37
2023-03-30T21:21:37.809Z,2.27
2023-03-30T21:24:08.950Z,2.08
2023-03-30T21:26:37.782Z,1.95
2023-03-30T21:29:07.436Z,1.94
2023-03-30T21:31:35.888Z,2.10
2023-03-30T21:34:04.344Z,2.20
2023-03-30T21:36:32.679Z,2.35
2023-03-30T21:39:01.221Z,2.53
2023-03-30T21:41:31.023Z,2.59
2023-03-30T21:43:59.566Z,2.64
2023-03-30T21:46:29.461Z,2.72
2023-03-30T21:48:58.131Z,2.73
2023-03-30T21:51:28.285Z,2.75
2023-03-30T21:53:57.930Z,2.82
2023-03-30T21:56:29.198Z,2.95
2023-03-30T21:59:00.013Z,3.08
2023-03-30T22:01:28.532Z,3.12
2023-03-30T22:03:57.653Z,3.19
2023-03-30T22:06:26.227Z,3.29
2023-03-30T22:08:54.881Z,3.36
2023-03-30T22:11:24.540Z,3.44
2023-03-30T22:13:55.499Z,3.46
2023-03-30T22:16:28.388Z,3.36
2023-03-30T22:18:57.062Z,3.34
2023-03-30T22:21:29.302Z,3.45
2023-03-30T22:23:57.937Z,3.47
2023-03-30T22:26:27.343Z,3.51
2023-03-30T22:28:55.923Z,3.52
2023-03-30T22:31:26.687Z,3.57
2023-03-30T22:33:56.471Z,3.66
2023-03-30T22:36:26.829Z,3.69
2023-03-30T22:38:57.484Z,3.69
2023-03-30T22:41:26.809Z,3.65
2023-03-30T22:43:56.813Z,3.67
2023-03-30T22:46:28.787Z,3.69
2023-03-30T22:48:58.769Z,3.60
2023-03-30T22:51:27.505Z,3.54
2023-03-30T22:53:58.047Z,3.55
2023-03-30T22:56:27.486Z,3.60
2023-03-30T22:58:56.157Z,3.52
2023-03-30T23:01:29.356Z,3.34
2023-03-30T23:03:59.657Z,3.23
2023-03-30T23:06:28.337Z,3.14
2023-03-30T23:08:56.740Z,3.12
2023-03-30T23:11:26.605Z,3.08
2023-03-30T23:13:55.056Z,3.07
2023-03-30T23:16:23.443Z,3.12
2023-03-30T23:18:53.421Z,3.21
2023-03-30T23:21:22.305Z,3.16
2023-03-30T23:23:50.932Z,2.96
2023-03-30T23:26:19.688Z,2.80
2023-03-30T23:28:48.042Z,2.71
2023-03-30T23:31:19.081Z,2.72
2023-03-30T23:33:47.892Z,2.94
2023-03-30T23:36:19.275Z,3.28
2023-03-30T23:38:48.843Z,3.43
2023-03-30T23:41:19.037Z,3.54
2023-03-30T23:43:47.866Z,3.70
2023-03-30T23:46:16.919Z,3.71
2023-03-30T23:48:45.812Z,3.75
2023-03-30T23:51:14.234Z,3.85
2023-03-30T23:53:43.973Z,3.93
2023-03-30T23:56:17.151Z,3.92
2023-03-30T23:58:46.032Z,3.80
